Flight Track Log - Related Links

Times and Time Zones

All times are in EST time to prevent confusion due to time zone crossing. See the FLG3757 flight status page for this flight to view local times or setup timezone preferences in your user account.

Time Position Orientation Groundspeed Altitude Reporting Facility
EST Latitude Longitude Course Direction KTS MPH feet Rate Location/Type
Thu 06:24:32 AM 42.2519 -76.0600 289° West 208 239 4,800  Level Cleveland Center
Thu 06:25:33 AM 42.2725 -76.1408 289° West 236 272 6,400 2,380 Climbing Cleveland Center
Thu 06:26:33 AM 42.3006 -76.2319 293° West 257 296 9,600 2,628 Climbing Cleveland Center
Thu 06:27:34 AM 42.3244 -76.3242 289° West 260 299 11,700 1,967 Climbing Cleveland Center
Thu 06:28:35 AM 42.3544 -76.4342 290° West 284 327 13,600 1,770 Climbing Cleveland Center
Thu 06:29:00 AM 42.2293 -76.6872 289° West  Level Estimated
Thu 06:29:36 AM 42.3833 -76.5461 289° West 308 354 15,300  Level Cleveland Center
Thu 06:30:37 AM 42.4164 -76.6603 291° West 322 371 17,000 1,377 Climbing Cleveland Center
Thu 06:31:38 AM 42.4472 -76.7772 290° West 328 377 18,100 934 Climbing Cleveland Center
Thu 06:32:39 AM 42.4811 -76.9025 290° West 347 399 18,900 942 Climbing Cleveland Center
Thu 06:33:39 AM 42.5217 -77.0597 289° West 367 422 20,000 992 Climbing Cleveland Center
Thu 06:34:40 AM 42.5561 -77.1928 289° West 374 430 20,900 885 Climbing Cleveland Center
Thu 06:35:41 AM 42.5928 -77.3281 290° West 383 441 21,800 541 Climbing Cleveland Center
Thu 06:36:42 AM 42.6269 -77.4586 290° West 384 442 22,000 98 Climbing Cleveland Center
Thu 06:37:43 AM 42.6644 -77.6022 290° West 397 457 22,000  Level Cleveland Center
Thu 06:38:44 AM 42.7000 -77.7403 289° West 405 466 22,000  Level Cleveland Center
Thu 06:39:45 AM 42.7247 -77.9261 280° West 420 483 22,000  Level Cleveland Center
Thu 06:40:46 AM 42.7289 -78.0839 272° West 420 483 22,000  Level Cleveland Center
Thu 06:41:48 AM 42.7325 -78.2400 272° West 414 476 22,000  Level Cleveland Center
Thu 06:42:49 AM 42.7350 -78.3931 271° West 407 468 22,000  Level Cleveland Center
Thu 06:43:50 AM 42.7372 -78.5456 271° West 404 465 22,000  Level Cleveland Center
Thu 06:44:51 AM 42.7403 -78.6958 272° West 400 460 22,000  Level Cleveland Center
Thu 06:45:52 AM 42.7417 -78.8461 271° West 397 457 22,000  Level Cleveland Center
Thu 06:46:53 AM 42.7436 -78.9947 271° West 395 455 22,000  Level Cleveland Center
Thu 06:47:54 AM 42.7458 -79.1436 271° West 394 453 22,000  Level Cleveland Center
Thu 06:48:55 AM 42.7475 -79.2911 271° West 392 451 22,000  Level Cleveland Center
Thu 06:49:57 AM 42.7489 -79.4700 271° West 394 453 22,000  Level Cleveland Center
Thu 06:50:58 AM 42.7333 -79.6161 262° West 392 451 22,000  Level Cleveland Center
Thu 06:51:59 AM 42.7022 -79.7589 254° West 395 455 22,000  Level Cleveland Center
Thu 06:53:00 AM 42.6731 -79.9019 255° West 394 453 22,000  Level Cleveland Center
Thu 06:54:01 AM 42.6619 -80.0400 264° West 391 450 22,000  Level Cleveland Center
Thu 06:55:03 AM 42.6719 -80.1903 275° West 395 455 22,000  Level Cleveland Center
Thu 06:56:04 AM 42.6792 -80.3394 274° West 394 453 22,000  Level Cleveland Center
Thu 06:57:05 AM 42.6878 -80.4797 275° West 377 434 22,000  Level Cleveland Center
Thu 06:58:06 AM 42.6936 -80.6181 273° West 367 422 22,000  Level Cleveland Center
Thu 06:59:08 AM 42.7019 -80.7811 274° West 369 425 22,000  Level Cleveland Center
Thu 07:00:09 AM 42.7033 -80.9197 271° West 366 421 22,000  Level Cleveland Center
Thu 07:01:10 AM 42.6875 -81.0528 261° West 358 412 22,000  Level Cleveland Center
Thu 07:02:12 AM 42.6728 -81.1881 262° West 359 413 22,000  Level Cleveland Center
Thu 07:03:13 AM 42.6575 -81.3228 261° West 358 412 22,000  Level Cleveland Center
Thu 07:04:14 AM 42.6419 -81.4564 261° West 357 411 22,000  Level Cleveland Center
Thu 07:05:16 AM 42.6264 -81.5903 261° West 357 411 22,000 -195 Level Cleveland Center
Thu 07:06:17 AM 42.6106 -81.7253 261° West 359 413 21,600 -836 Descending Cleveland Center
Thu 07:07:18 AM 42.5939 -81.8561 260° West 362 417 20,300 -1,317 Descending Cleveland Center
Thu 07:08:20 AM 42.5775 -81.9875 260° West 358 412 18,900 -1,463 Descending Cleveland Center
Thu 07:09:21 AM 42.5619 -82.1169 261° West 350 403 17,300 -1,714 Descending Cleveland Center
Thu 07:10:12 AM 42.5472 -82.2517 262° West 343 395 15,700 -1,742 Descending Cleveland Center
Thu 07:10:23 AM 42.5439 -82.2700 256° West 347 399 15,500 -1,459 Descending Cleveland Center
Thu 07:10:49 AM 42.5378 -82.3267 262° West 326 375 14,800 -1,475 Descending Cleveland Center
Thu 07:11:24 AM 42.5286 -82.3900 259° West 332 382 14,000 -1,475 Descending Cleveland Center
Thu 07:11:50 AM 42.5211 -82.4464 260° West 327 376 13,300 -1,452 Descending Cleveland Center
Thu 07:12:26 AM 42.5128 -82.5114 260° West 328 377 12,500 -1,279 Descending Cleveland Center
Thu 07:12:51 AM 42.4981 -82.5678 251° West 329 379 12,000 -787 Descending Cleveland Center
Thu 07:13:27 AM 42.4797 -82.6250 247° West 325 374 11,700 -885 Descending Cleveland Center
Thu 07:13:52 AM 42.4608 -82.6761 243° Southwest 322 371 11,100 -1,161 Descending Cleveland Center
Thu 07:14:29 AM 42.4417 -82.7325 245° Southwest 319 367 10,500 -1,200 Descending Cleveland Center
Thu 07:14:52 AM 42.4264 -82.7764 245° Southwest 274 315 9,900 -984 Descending Cleveland Center
Thu 07:15:30 AM 42.4194 -82.8258 259° West 274 315 9,500 -1,377 Descending Cleveland Center
Thu 07:15:53 AM 42.4172 -82.8739 266° West 235 270 8,500 -2,032 Descending Cleveland Center
Thu 07:16:32 AM 42.4236 -82.9142 282° West 244 281 7,400 -1,475 Descending Cleveland Center
Thu 07:16:54 AM 42.4314 -82.9664 281° West 246 283 7,000 -984 Descending Cleveland Center
Thu 07:17:33 AM 42.4361 -83.0047 279° West 244 281 6,400 -984 Descending Cleveland Center
Thu 07:17:55 AM 42.4350 -83.0572 268° West 235 270 6,000 -581 Descending Cleveland Center
Thu 07:18:35 AM 42.4247 -83.1067 254° West 233 268 5,800 -885 Descending Cleveland Center
Thu 07:18:56 AM 42.4125 -83.1361 241° Southwest 224 258 5,100 -1,475 Descending Cleveland Center
Thu 07:19:36 AM 42.3967 -83.1800 244° Southwest 224 258 4,300 -1,082 Descending Cleveland Center
Thu 07:19:57 AM 42.3858 -83.2089 243° Southwest 203 234 4,000 -677 Descending Cleveland Center
Thu 07:20:38 AM 42.3594 -83.2317 213° Southwest 200 230 3,600 -590 Descending Cleveland Center
Thu 07:20:58 AM 42.3411 -83.2450 208° Southwest 168 193 3,400 -492 Descending Cleveland Center
Thu 07:21:39 AM 42.3197 -83.2608 209° Southwest 177 204 3,100 -590 Descending Cleveland Center
Thu 07:21:59 AM 42.3081 -83.2686 206° Southwest 115 132 2,800 -581 Descending Cleveland Center
Thu 07:22:41 AM 42.2925 -83.2817 212° Southwest 138 159 2,500 -689 Descending Cleveland Center
Thu 07:23:00 AM 42.2792 -83.2900 205° Southwest 119 137 2,100 -787 Descending Cleveland Center
Thu 07:23:42 AM 42.2633 -83.3033 212° Southwest 125 144 1,700 -689 Descending Cleveland Center
Thu 07:24:01 AM 42.2481 -83.3139 207° Southwest 126 145 1,400 -484 Descending Cleveland Center
Thu 07:24:44 AM 42.2300 -83.3269 208° Southwest 123 142 1,200 -279 Descending Cleveland Center
Thu 07:26:00 AM 42.2124 -83.3534 236° Southwest  Level Estimated
Thu 07:33:00 AM 42.2124 -83.3534 236° Southwest  Level Estimated
Thu 07:34:00 AM 42.2124 -83.3534 236° Southwest  Level Estimated

Login

Don't have an account? Register now (free) for customized features, flight alerts, and more!